Time;durP1;ratioP1;P1;durP2;ratioP2;P2;SDS_P1;SDS_P2;PMS_P1;PMS_P2;Temp;Humidity;BMP_temperature;BMP_pressure;BME280_temperature;BME280_humidity;BME280_pressure;Samples;Min_cycle;Max_cycle;Signal;HPM_P1;HPM_P2
2021/05/02 00:01:35;;;;;;;;;;;;;;;9.98;69.98;91828.84;2038466;70;20135;-82
2021/05/02 00:04:02;;;;;;;;;;;;;;;9.88;68.68;91842.41;2038425;70;20040;-83
2021/05/02 00:06:27;;;;;;;;;;;;;;;9.73;70.12;91837.44;2037978;70;20478;-83
2021/05/02 00:08:53;;;;;;;;;;;;;;;9.87;68.59;91840.94;2038294;70;20139;-82
2021/05/02 00:11:18;;;;;;;;;;;;;;;9.73;69.62;91843.06;2038595;70;20227;-83
2021/05/02 00:13:44;;;;;;;;;;;;;;;9.64;70.90;91855.97;2038381;70;20210;-82
2021/05/02 00:16:09;;;;;;;;;;;;;;;9.63;72.08;91855.25;2038548;70;20075;-82
2021/05/02 00:18:36;;;;;;;;;;;;;;;9.65;71.07;91857.41;2038449;70;20056;-82
2021/05/02 00:21:05;;;;;;;;;;;;;;;9.68;71.54;91865.34;2038541;70;20060;-81
2021/05/02 00:23:33;;;;;;;;;;;;;;;9.52;71.96;91867.31;2038977;70;20079;-82
2021/05/02 00:25:58;;;;;;;;;;;;;;;9.67;71.39;91880.03;2038861;70;20166;-82
2021/05/02 00:28:24;;;;;;;;;;;;;;;9.61;71.58;91874.06;2038737;70;20139;-82
2021/05/02 00:30:50;;;;;;;;;;;;;;;9.67;71.58;91877.94;2039004;70;20060;-82
2021/05/02 00:33:17;;;;;;;;;;;;;;;9.54;71.57;91881.47;2038827;70;20048;-82
2021/05/02 00:35:43;;;;;;;;;;;;;;;9.42;71.98;91869.59;2038931;70;20043;-82
2021/05/02 00:38:10;;;;;;;;;;;;;;;9.35;72.17;91870.66;2038604;70;20051;-82
2021/05/02 00:40:37;;;;;;;;;;;;;;;9.35;72.53;91881.88;2038198;70;20409;-82
2021/05/02 00:43:07;;;;;;;;;;;;;;;9.45;71.57;91876.06;2038587;70;20060;-81
2021/05/02 00:45:52;;;;;;;;;;;;;;;9.36;72.22;91874.91;2038688;70;20047;-82
2021/05/02 00:48:20;;;;;;;;;;;;;;;9.34;71.91;91883.94;2038556;70;20072;-82
2021/05/02 00:50:52;;;;;;;;;;;;;;;9.28;72.45;91889.25;2038642;70;20064;-82
2021/05/02 00:53:24;;;;;;;;;;;;;;;9.06;73.37;91891.63;2038168;70;20048;-82
2021/05/02 00:55:56;;;;;;;;;;;;;;;9.20;73.30;91899.34;2038666;70;20052;-82
2021/05/02 00:58:30;;;;;;;;;;;;;;;9.29;72.91;91904.75;2038776;70;20052;-82
2021/05/02 01:00:57;;;;;;;;;;;;;;;9.39;72.46;91902.50;2038806;70;20059;-82
2021/05/02 01:03:23;;;;;;;;;;;;;;;9.44;71.63;91906.25;2038927;70;20056;-83
2021/05/02 01:05:49;;;;;;;;;;;;;;;9.34;72.22;91909.22;2038927;70;20576;-83
2021/05/02 01:08:14;;;;;;;;;;;;;;;9.39;72.10;91907.34;2039014;70;20131;-83
2021/05/02 01:10:40;;;;;;;;;;;;;;;9.31;72.25;91918.91;2039393;70;20576;-83
2021/05/02 01:13:06;;;;;;;;;;;;;;;9.29;71.83;91926.50;2039050;70;20135;-84
2021/05/02 01:15:34;;;;;;;;;;;;;;;9.26;71.53;91925.66;2039315;70;20046;-83
2021/05/02 01:18:01;;;;;;;;;;;;;;;9.19;72.98;91926.69;2039224;70;20068;-83
2021/05/02 01:20:31;;;;;;;;;;;;;;;9.25;72.41;91931.91;2039286;70;20048;-83
2021/05/02 01:22:58;;;;;;;;;;;;;;;9.08;73.61;91921.91;2039112;70;20048;-84
2021/05/02 01:25:24;;;;;;;;;;;;;;;9.15;72.58;91909.63;2039196;70;20048;-83
2021/05/02 01:27:53;;;;;;;;;;;;;;;9.19;72.27;91909.13;2039035;70;20071;-83
2021/05/02 01:30:19;;;;;;;;;;;;;;;9.36;72.32;91922.66;2039216;70;20074;-84
2021/05/02 01:32:45;;;;;;;;;;;;;;;9.30;72.39;91931.50;2038938;70;20056;-82
2021/05/02 01:35:10;;;;;;;;;;;;;;;9.18;72.73;91927.31;2039146;70;20060;-83
2021/05/02 01:37:36;;;;;;;;;;;;;;;9.04;73.52;91922.41;2039152;70;20055;-82
2021/05/02 01:40:03;;;;;;;;;;;;;;;8.87;73.54;91929.22;2039041;70;20050;-83
2021/05/02 01:42:28;;;;;;;;;;;;;;;8.98;73.36;91938.94;2039090;70;20043;-83
2021/05/02 01:44:54;;;;;;;;;;;;;;;9.12;72.81;91938.97;2039162;70;20063;-83
2021/05/02 01:47:20;;;;;;;;;;;;;;;9.02;72.62;91941.19;2038986;70;20048;-83
2021/05/02 01:49:52;;;;;;;;;;;;;;;8.76;73.59;91934.91;2039119;70;20048;-83
2021/05/02 01:52:18;;;;;;;;;;;;;;;8.42;73.04;91942.13;2039147;70;20095;-84
2021/05/02 01:54:44;;;;;;;;;;;;;;;8.82;73.21;91944.38;2038573;70;20080;-84
2021/05/02 01:57:10;;;;;;;;;;;;;;;8.76;73.38;91944.03;2039246;70;20095;-84
2021/05/02 01:59:36;;;;;;;;;;;;;;;8.82;73.79;91943.66;2038617;70;20143;-83
2021/05/02 02:02:02;;;;;;;;;;;;;;;8.72;73.41;91943.81;2038564;70;20472;-84
2021/05/02 02:04:29;;;;;;;;;;;;;;;8.63;74.41;91945.44;2038823;70;20052;-83
2021/05/02 02:06:56;;;;;;;;;;;;;;;8.94;73.34;91949.94;2039005;70;20048;-82
2021/05/02 02:09:22;;;;;;;;;;;;;;;8.85;73.90;91954.38;2038782;70;20507;-83
2021/05/02 02:11:50;;;;;;;;;;;;;;;8.82;73.30;91961.22;2038252;70;20083;-83
2021/05/02 02:14:16;;;;;;;;;;;;;;;8.86;73.09;91953.00;2038757;70;20051;-83
2021/05/02 02:16:45;;;;;;;;;;;;;;;8.79;73.89;91954.00;2038747;70;20048;-83
2021/05/02 02:19:10;;;;;;;;;;;;;;;8.65;74.72;91962.38;2038714;70;20051;-83
2021/05/02 02:21:36;;;;;;;;;;;;;;;8.69;74.98;91955.53;2038953;70;20119;-83
2021/05/02 02:24:02;;;;;;;;;;;;;;;8.70;74.49;91948.56;2038911;70;20409;-83
2021/05/02 02:26:30;;;;;;;;;;;;;;;8.83;73.94;91950.72;2038971;70;20048;-83
2021/05/02 02:28:58;;;;;;;;;;;;;;;8.71;74.19;91945.16;2038102;70;20075;-83
2021/05/02 02:31:23;;;;;;;;;;;;;;;8.65;74.18;91947.63;2038775;70;20136;-83
2021/05/02 02:33:50;;;;;;;;;;;;;;;8.64;75.24;91951.78;2038795;70;20083;-83
2021/05/02 02:36:15;;;;;;;;;;;;;;;8.68;74.37;91957.63;2038780;70;20523;-83
2021/05/02 02:38:42;;;;;;;;;;;;;;;8.79;73.48;91964.50;2038875;70;20142;-83
2021/05/02 02:41:11;;;;;;;;;;;;;;;8.74;74.19;91966.38;2038712;70;20510;-83
2021/05/02 02:43:37;;;;;;;;;;;;;;;8.73;73.73;91978.22;2038583;70;20048;-83
2021/05/02 02:46:05;;;;;;;;;;;;;;;8.64;73.81;91977.03;2038601;70;20056;-83
2021/05/02 02:48:33;;;;;;;;;;;;;;;8.83;73.71;91975.97;2038275;70;20099;-83
2021/05/02 02:51:00;;;;;;;;;;;;;;;8.83;73.89;91978.78;2038713;70;20074;-83
2021/05/02 02:53:27;;;;;;;;;;;;;;;8.80;74.24;91988.44;2038913;70;20048;-83
2021/05/02 02:55:57;;;;;;;;;;;;;;;8.65;74.41;91998.13;2038716;70;20444;-84
2021/05/02 02:58:23;;;;;;;;;;;;;;;8.37;75.33;91995.16;2038703;70;20060;-83
2021/05/02 03:00:49;;;;;;;;;;;;;;;8.63;75.12;91998.75;2038715;70;20075;-83
2021/05/02 03:03:18;;;;;;;;;;;;;;;8.78;74.14;92005.16;2038685;70;20469;-83
2021/05/02 03:05:44;;;;;;;;;;;;;;;8.79;73.34;92001.72;2038686;70;20413;-83
2021/05/02 03:08:10;;;;;;;;;;;;;;;8.70;73.48;92004.69;2038756;70;20427;-83
2021/05/02 03:10:36;;;;;;;;;;;;;;;8.64;74.51;92016.31;2038766;70;20499;-83
2021/05/02 03:13:02;;;;;;;;;;;;;;;8.72;73.71;92013.97;2038560;70;20044;-83
2021/05/02 03:15:28;;;;;;;;;;;;;;;8.76;73.93;92011.41;2038825;70;20115;-83
2021/05/02 03:18:04;;;;;;;;;;;;;;;8.59;74.79;92025.84;2038680;70;20048;-84
2021/05/02 03:20:33;;;;;;;;;;;;;;;8.45;74.05;92028.56;2038138;70;20075;-83
2021/05/02 03:23:05;;;;;;;;;;;;;;;8.57;73.81;92031.34;2038654;70;20064;-83
2021/05/02 03:25:33;;;;;;;;;;;;;;;8.49;74.40;92036.50;2038227;70;20052;-83
2021/05/02 03:28:00;;;;;;;;;;;;;;;8.68;73.96;92033.38;2038724;70;20416;-84
2021/05/02 03:30:26;;;;;;;;;;;;;;;8.60;74.42;92052.53;2038760;70;20504;-83
2021/05/02 03:32:53;;;;;;;;;;;;;;;8.71;73.71;92060.22;2038140;70;20170;-83
2021/05/02 03:35:19;;;;;;;;;;;;;;;8.66;73.21;92058.53;2038663;70;20123;-83
2021/05/02 03:37:52;;;;;;;;;;;;;;;8.44;74.66;92049.56;2038659;70;20047;-83
2021/05/02 03:40:17;;;;;;;;;;;;;;;8.54;73.89;92052.22;2038630;70;20052;-83
2021/05/02 03:42:43;;;;;;;;;;;;;;;8.60;74.24;92058.88;2038422;70;20047;-83
2021/05/02 03:45:09;;;;;;;;;;;;;;;8.48;74.59;92065.91;2038668;70;20592;-83
2021/05/02 03:47:34;;;;;;;;;;;;;;;8.59;74.44;92068.66;2038689;70;20044;-83
2021/05/02 03:50:00;;;;;;;;;;;;;;;8.43;74.79;92067.72;2038566;70;20048;-83
2021/05/02 03:52:25;;;;;;;;;;;;;;;8.53;73.73;92073.19;2038096;70;20047;-82
2021/05/02 03:54:54;;;;;;;;;;;;;;;8.53;74.79;92076.00;2038570;70;20055;-84
2021/05/02 03:57:19;;;;;;;;;;;;;;;8.47;74.13;92076.34;2039015;70;20102;-83
2021/05/02 03:59:45;;;;;;;;;;;;;;;8.60;73.86;92083.41;2038537;70;20408;-83
2021/05/02 04:02:12;;;;;;;;;;;;;;;8.42;75.21;92087.97;2039064;70;20138;-83
2021/05/02 04:04:38;;;;;;;;;;;;;;;8.53;74.05;92090.75;2039194;70;20059;-83
2021/05/02 04:07:04;;;;;;;;;;;;;;;8.50;74.01;92088.44;2038636;70;20420;-83
2021/05/02 04:09:30;;;;;;;;;;;;;;;8.52;74.89;92094.91;2038626;70;20067;-83
2021/05/02 04:11:56;;;;;;;;;;;;;;;8.62;73.52;92097.56;2038900;70;20507;-83
2021/05/02 04:14:22;;;;;;;;;;;;;;;8.57;73.45;92107.81;2038883;70;20095;-83
2021/05/02 04:16:57;;;;;;;;;;;;;;;8.57;74.45;92109.91;2038885;70;20048;-83
2021/05/02 04:19:24;;;;;;;;;;;;;;;8.68;74.02;92111.94;2038345;70;20075;-83
2021/05/02 04:21:49;;;;;;;;;;;;;;;8.59;74.44;92107.22;2039042;70;20063;-83
2021/05/02 04:24:16;;;;;;;;;;;;;;;8.61;74.44;92112.94;2039053;70;20473;-83
2021/05/02 04:27:01;;;;;;;;;;;;;;;8.56;75.05;92130.88;2039052;70;20048;-82
2021/05/02 04:29:27;;;;;;;;;;;;;;;8.59;74.63;92130.38;2038908;70;20054;-83
2021/05/02 04:31:53;;;;;;;;;;;;;;;8.62;74.38;92134.78;2039022;70;20090;-83
2021/05/02 04:34:19;;;;;;;;;;;;;;;8.55;70.44;92132.22;2039042;70;20135;-83
2021/05/02 04:36:46;;;;;;;;;;;;;;;8.59;70.34;92141.59;2039137;70;20044;-84
2021/05/02 04:39:11;;;;;;;;;;;;;;;8.46;73.97;92144.31;2039208;70;20052;-83
2021/05/02 04:41:37;;;;;;;;;;;;;;;8.57;74.11;92149.91;2039173;70;20048;-83
2021/05/02 04:44:03;;;;;;;;;;;;;;;8.77;73.04;92138.41;2039039;70;20052;-84
2021/05/02 04:46:28;;;;;;;;;;;;;;;8.53;73.81;92148.94;2039006;70;20055;-83
2021/05/02 04:48:54;;;;;;;;;;;;;;;8.36;74.38;92150.78;2039138;70;20047;-83
2021/05/02 04:51:20;;;;;;;;;;;;;;;8.34;75.15;92159.03;2039019;70;20103;-83
2021/05/02 04:53:46;;;;;;;;;;;;;;;8.43;73.79;92154.69;2039166;70;20139;-83
2021/05/02 04:56:12;;;;;;;;;;;;;;;8.54;71.28;92167.97;2038482;70;20154;-83
2021/05/02 04:58:37;;;;;;;;;;;;;;;8.59;73.57;92172.47;2038891;70;20556;-83
2021/05/02 05:01:03;;;;;;;;;;;;;;;8.62;74.10;92179.66;2038897;70;20071;-83
2021/05/02 05:03:31;;;;;;;;;;;;;;;8.59;74.37;92182.97;2038457;70;20194;-83
2021/05/02 05:05:56;;;;;;;;;;;;;;;8.63;74.35;92197.97;2039187;70;20052;-83
2021/05/02 05:08:22;;;;;;;;;;;;;;;8.88;73.51;92199.38;2038855;70;20504;-83
2021/05/02 05:10:47;;;;;;;;;;;;;;;8.92;73.52;92199.63;2038511;70;20143;-83
2021/05/02 05:13:13;;;;;;;;;;;;;;;8.94;73.48;92199.03;2038320;70;20111;-83
2021/05/02 05:15:38;;;;;;;;;;;;;;;8.89;73.52;92200.88;2039051;70;20138;-83
2021/05/02 05:18:04;;;;;;;;;;;;;;;8.69;74.62;92203.19;2038970;70;20080;-83
2021/05/02 05:20:29;;;;;;;;;;;;;;;8.72;73.48;92204.06;2039061;70;20474;-83
2021/05/02 05:22:55;;;;;;;;;;;;;;;9.02;73.47;92205.09;2038398;70;20087;-83
2021/05/02 05:25:21;;;;;;;;;;;;;;;8.89;71.99;92203.69;2039133;70;20055;-84
2021/05/02 05:27:46;;;;;;;;;;;;;;;8.94;70.20;92207.47;2038940;70;20050;-83
2021/05/02 05:30:12;;;;;;;;;;;;;;;9.12;69.80;92202.91;2039236;70;20498;-84
2021/05/02 05:32:38;;;;;;;;;;;;;;;9.04;71.89;92197.53;2038314;70;20545;-84
2021/05/02 05:35:04;;;;;;;;;;;;;;;9.04;71.66;92197.53;2038831;70;20056;-83
2021/05/02 05:37:30;;;;;;;;;;;;;;;9.14;72.73;92194.59;2038875;70;20056;-83
2021/05/02 05:39:56;;;;;;;;;;;;;;;9.23;72.70;92204.22;2038867;70;20081;-83
2021/05/02 05:42:21;;;;;;;;;;;;;;;9.31;71.84;92207.50;2038692;70;20131;-83
2021/05/02 05:44:46;;;;;;;;;;;;;;;9.14;69.13;92203.00;2038905;70;20068;-83
2021/05/02 05:47:13;;;;;;;;;;;;;;;9.47;67.72;92210.47;2038854;70;20507;-83
2021/05/02 05:49:42;;;;;;;;;;;;;;;9.37;69.98;92219.78;2038809;70;20139;-83
2021/05/02 05:52:08;;;;;;;;;;;;;;;9.55;69.44;92222.91;2038290;70;20080;-83
2021/05/02 05:54:39;;;;;;;;;;;;;;;9.35;68.45;92224.59;2038777;70;20054;-83
2021/05/02 05:57:05;;;;;;;;;;;;;;;9.43;67.66;92234.19;2038769;70;20487;-83
2021/05/02 05:59:30;;;;;;;;;;;;;;;9.51;69.49;92231.13;2038039;70;20047;-83
2021/05/02 06:01:56;;;;;;;;;;;;;;;9.37;69.14;92241.53;2038608;70;20646;-83
2021/05/02 06:04:22;;;;;;;;;;;;;;;9.67;69.83;92243.28;2038093;70;20139;-83
2021/05/02 06:06:47;;;;;;;;;;;;;;;9.87;69.05;92235.25;2038631;70;20044;-83
2021/05/02 06:09:13;;;;;;;;;;;;;;;9.91;66.69;92248.81;2038567;70;20044;-83
2021/05/02 06:11:38;;;;;;;;;;;;;;;9.89;67.99;92248.69;2038661;70;20493;-83
2021/05/02 06:14:05;;;;;;;;;;;;;;;10.08;67.01;92248.38;2038456;70;20521;-83
2021/05/02 06:16:30;;;;;;;;;;;;;;;9.93;64.06;92252.44;2038597;70;20082;-83
2021/05/02 06:18:56;;;;;;;;;;;;;;;10.16;64.92;92248.78;2038551;70;20048;-82
2021/05/02 06:21:23;;;;;;;;;;;;;;;10.23;66.96;92254.78;2038590;70;20051;-83
2021/05/02 06:23:48;;;;;;;;;;;;;;;10.32;68.55;92246.19;2038619;70;20055;-84
2021/05/02 06:26:15;;;;;;;;;;;;;;;10.39;65.98;92258.47;2038602;70;20052;-83
2021/05/02 06:28:42;;;;;;;;;;;;;;;10.56;66.50;92260.81;2038012;70;20059;-84
2021/05/02 06:31:08;;;;;;;;;;;;;;;10.56;67.08;92269.25;2038668;70;20048;-85
2021/05/02 06:33:34;;;;;;;;;;;;;;;10.40;66.76;92277.56;2038153;70;20047;-83
2021/05/02 06:35:59;;;;;;;;;;;;;;;10.59;66.51;92264.50;2038626;70;20130;-84
2021/05/02 06:38:25;;;;;;;;;;;;;;;10.49;65.18;92269.56;2038596;70;20052;-83
2021/05/02 06:40:50;;;;;;;;;;;;;;;10.74;66.64;92283.59;2038655;70;20484;-83
2021/05/02 06:43:16;;;;;;;;;;;;;;;10.17;64.04;92274.84;2038423;70;20122;-83
2021/05/02 06:45:41;;;;;;;;;;;;;;;9.65;66.34;92279.69;2038583;70;20381;-83
2021/05/02 06:48:07;;;;;;;;;;;;;;;9.13;66.42;92280.91;2038559;70;20470;-83
2021/05/02 06:50:32;;;;;;;;;;;;;;;10.45;65.72;92286.97;2038790;70;20091;-83
2021/05/02 06:52:58;;;;;;;;;;;;;;;9.32;64.57;92287.59;2038565;70;20052;-83
2021/05/02 06:55:23;;;;;;;;;;;;;;;9.14;65.01;92301.31;2038556;70;20044;-84
2021/05/02 06:57:49;;;;;;;;;;;;;;;10.13;63.73;92303.50;2038387;70;20115;-83
2021/05/02 07:00:14;;;;;;;;;;;;;;;9.68;65.02;92312.19;2038709;70;20052;-83
2021/05/02 07:02:40;;;;;;;;;;;;;;;9.61;63.91;92301.94;2038495;70;20071;-83
2021/05/02 07:05:06;;;;;;;;;;;;;;;9.20;64.64;92310.06;2038509;70;20095;-84
2021/05/02 07:07:31;;;;;;;;;;;;;;;9.76;64.95;92316.81;2038518;70;20052;-83
2021/05/02 07:09:57;;;;;;;;;;;;;;;9.57;66.08;92309.41;2037997;70;20048;-83
2021/05/02 07:12:24;;;;;;;;;;;;;;;10.28;63.85;92316.28;2037766;70;20484;-83
2021/05/02 07:14:49;;;;;;;;;;;;;;;10.74;64.81;92305.38;2038490;70;20067;-83
2021/05/02 07:17:15;;;;;;;;;;;;;;;11.30;63.55;92318.19;2038503;70;20099;-83
2021/05/02 07:19:41;;;;;;;;;;;;;;;11.40;60.86;92322.25;2038499;70;20087;-83
2021/05/02 07:22:06;;;;;;;;;;;;;;;11.74;60.44;92322.56;2037908;70;20131;-83
2021/05/02 07:24:32;;;;;;;;;;;;;;;11.68;60.14;92327.88;2038462;70;20051;-83
2021/05/02 07:26:57;;;;;;;;;;;;;;;11.52;62.22;92332.69;2038481;70;20044;-83
2021/05/02 07:29:23;;;;;;;;;;;;;;;11.84;60.17;92336.47;2038367;70;20119;-83
2021/05/02 07:31:48;;;;;;;;;;;;;;;10.58;61.70;92334.13;2038322;70;20051;-83
2021/05/02 07:34:14;;;;;;;;;;;;;;;11.46;60.62;92338.75;2038577;70;20470;-82
2021/05/02 07:36:40;;;;;;;;;;;;;;;11.70;59.26;92344.91;2038468;70;20141;-85
2021/05/02 07:39:09;;;;;;;;;;;;;;;11.85;59.14;92343.56;2038458;70;20054;-85
2021/05/02 07:41:34;;;;;;;;;;;;;;;10.72;61.72;92334.16;2038428;70;20044;-85
2021/05/02 07:44:00;;;;;;;;;;;;;;;11.51;60.86;92328.44;2038432;70;20157;-85
2021/05/02 07:46:26;;;;;;;;;;;;;;;11.95;58.92;92330.69;2038446;70;20052;-83
2021/05/02 07:48:51;;;;;;;;;;;;;;;12.07;56.88;92330.56;2038449;70;20112;-83
2021/05/02 07:51:17;;;;;;;;;;;;;;;12.44;57.92;92329.50;2038015;70;20054;-83
2021/05/02 07:53:43;;;;;;;;;;;;;;;12.79;55.89;92337.53;2038391;70;20136;-83
2021/05/02 07:56:08;;;;;;;;;;;;;;;12.77;54.23;92343.06;2038392;70;20139;-81
2021/05/02 07:58:34;;;;;;;;;;;;;;;13.19;54.82;92340.75;2038263;70;20115;-79
2021/05/02 08:00:59;;;;;;;;;;;;;;;13.46;51.94;92348.34;2038391;70;20516;-80
2021/05/02 08:03:25;;;;;;;;;;;;;;;12.69;47.97;92345.50;2038349;70;20485;-80
2021/05/02 08:05:51;;;;;;;;;;;;;;;13.25;48.56;92354.47;2038332;70;20088;-80
2021/05/02 08:08:16;;;;;;;;;;;;;;;14.38;48.37;92346.59;2038323;70;20056;-80
2021/05/02 08:10:42;;;;;;;;;;;;;;;12.97;49.48;92349.69;2038339;70;20500;-80
2021/05/02 08:13:07;;;;;;;;;;;;;;;13.10;49.26;92353.03;2038093;70;20123;-79
2021/05/02 08:15:33;;;;;;;;;;;;;;;14.60;48.31;92355.28;2038349;70;20047;-78
2021/05/02 08:17:59;;;;;;;;;;;;;;;12.38;49.14;92354.63;2038441;70;20152;-80
2021/05/02 08:20:25;;;;;;;;;;;;;;;12.17;53.23;92353.63;2037800;70;20055;-80
2021/05/02 08:22:50;;;;;;;;;;;;;;;13.02;50.12;92347.78;2038287;70;20048;-80
2021/05/02 08:25:16;;;;;;;;;;;;;;;13.02;49.81;92352.69;2037740;70;20055;-80
2021/05/02 08:27:43;;;;;;;;;;;;;;;12.78;51.21;92349.44;2038201;70;20497;-81
2021/05/02 08:30:09;;;;;;;;;;;;;;;13.27;49.10;92352.44;2038319;70;20052;-80
2021/05/02 08:32:35;;;;;;;;;;;;;;;13.82;47.38;92357.69;2038269;70;20040;-79
2021/05/02 08:35:02;;;;;;;;;;;;;;;13.71;47.33;92344.50;2038271;70;20580;-79
2021/05/02 08:37:27;;;;;;;;;;;;;;;14.15;47.08;92356.25;2038311;70;20493;-80
2021/05/02 08:39:53;;;;;;;;;;;;;;;12.64;48.75;92355.16;2037778;70;20048;-80
2021/05/02 08:42:18;;;;;;;;;;;;;;;13.37;49.42;92361.38;2038302;70;20095;-80
2021/05/02 08:44:44;;;;;;;;;;;;;;;13.62;47.38;92363.22;2036818;70;20164;-76
2021/05/02 08:47:11;;;;;;;;;;;;;;;12.12;48.97;92357.63;2035385;70;20067;-80
2021/05/02 08:49:48;;;;;;;;;;;;;;;13.98;47.16;92357.69;2034941;70;20064;-80
2021/05/02 08:52:17;;;;;;;;;;;;;;;14.08;47.63;92351.72;2035411;70;20505;-82
2021/05/02 08:54:42;;;;;;;;;;;;;;;12.86;46.96;92361.84;2035611;70;20091;-81
2021/05/02 08:57:08;;;;;;;;;;;;;;;13.54;46.31;92350.81;2036045;70;20051;-84
2021/05/02 08:59:33;;;;;;;;;;;;;;;14.66;45.77;92352.69;2035343;70;20091;-85
2021/05/02 09:01:59;;;;;;;;;;;;;;;13.32;46.33;92359.03;2035440;70;20079;-82
2021/05/02 09:04:25;;;;;;;;;;;;;;;12.06;48.06;92359.41;2035460;70;20482;-83
2021/05/02 09:06:50;;;;;;;;;;;;;;;14.31;44.20;92368.28;2035413;70;20064;-82
2021/05/02 09:09:16;;;;;;;;;;;;;;;13.21;45.52;92363.47;2035602;70;20139;-81
2021/05/02 09:11:44;;;;;;;;;;;;;;;13.34;46.61;92376.09;2035234;70;20524;-81
2021/05/02 09:14:15;;;;;;;;;;;;;;;13.05;46.37;92368.34;2034926;70;20075;-81
2021/05/02 09:16:50;;;;;;;;;;;;;;;12.23;47.68;92370.13;2034997;70;20044;-80
2021/05/02 09:19:16;;;;;;;;;;;;;;;13.30;45.39;92373.06;2034975;70;20509;-79
2021/05/02 09:21:42;;;;;;;;;;;;;;;13.54;45.73;92377.00;2034958;70;20167;-78
2021/05/02 09:24:29;;;;;;;;;;;;;;;13.20;44.84;92376.16;2034926;70;20056;-79
2021/05/02 09:27:01;;;;;;;;;;;;;;;12.67;45.13;92370.84;2035182;70;20056;-79
2021/05/02 09:29:28;;;;;;;;;;;;;;;14.06;44.22;92379.94;2035364;70;20171;-79
2021/05/02 09:31:54;;;;;;;;;;;;;;;14.40;43.12;92375.00;2035400;70;20052;-78
2021/05/02 09:34:20;;;;;;;;;;;;;;;13.00;44.72;92373.09;2035002;70;20098;-78
2021/05/02 09:36:49;;;;;;;;;;;;;;;14.48;43.41;92378.94;2035416;70;20044;-79
2021/05/02 09:39:33;;;;;;;;;;;;;;;14.87;41.20;92376.91;2035423;70;20049;-79
2021/05/02 09:42:05;;;;;;;;;;;;;;;14.18;41.03;92388.94;2035513;70;20557;-79
2021/05/02 09:44:57;;;;;;;;;;;;;;;14.08;41.31;92391.34;2035268;70;20052;-79
2021/05/02 09:47:32;;;;;;;;;;;;;;;14.84;40.32;92390.25;2035457;70;20424;-79
2021/05/02 09:50:02;;;;;;;;;;;;;;;13.97;39.54;92382.44;2035411;70;20494;-78
2021/05/02 09:52:48;;;;;;;;;;;;;;;14.93;38.53;92380.72;2035421;70;20139;-79
2021/05/02 09:55:27;;;;;;;;;;;;;;;14.83;37.74;92377.47;2035323;70;20092;-79
2021/05/02 09:58:01;;;;;;;;;;;;;;;15.97;37.04;92378.97;2035271;70;20515;-79
2021/05/02 10:00:27;;;;;;;;;;;;;;;16.29;36.67;92386.44;2035377;70;20056;-79
2021/05/02 10:02:53;;;;;;;;;;;;;;;18.53;33.68;92387.63;2035343;70;20052;-80
2021/05/02 10:05:18;;;;;;;;;;;;;;;17.59;34.56;92390.66;2035363;70;20155;-79
2021/05/02 10:07:44;;;;;;;;;;;;;;;14.69;37.85;92388.25;2035477;70;20056;-79
2021/05/02 10:10:10;;;;;;;;;;;;;;;16.71;34.54;92390.72;2035330;70;20417;-79
2021/05/02 10:12:40;;;;;;;;;;;;;;;14.08;37.78;92394.91;2034574;70;20052;-79
2021/05/02 10:15:06;;;;;;;;;;;;;;;15.55;37.91;92395.13;2035372;70;20506;-79
2021/05/02 10:17:31;;;;;;;;;;;;;;;15.95;36.33;92398.06;2034834;70;20080;-79
2021/05/02 10:19:57;;;;;;;;;;;;;;;17.22;33.48;92411.56;2035350;70;20094;-79
2021/05/02 10:22:22;;;;;;;;;;;;;;;14.99;37.27;92400.09;2035286;70;20084;-79
2021/05/02 10:24:48;;;;;;;;;;;;;;;15.10;36.82;92406.88;2035318;70;20044;-79
2021/05/02 10:27:15;;;;;;;;;;;;;;;14.90;37.76;92406.81;2034918;70;20056;-79
2021/05/02 10:29:41;;;;;;;;;;;;;;;12.96;38.64;92407.53;2035275;70;20059;-79
2021/05/02 10:32:09;;;;;;;;;;;;;;;13.21;39.45;92408.69;2035449;70;20052;-78
2021/05/02 10:34:48;;;;;;;;;;;;;;;13.21;39.51;92412.25;2035323;70;20135;-79
2021/05/02 10:37:34;;;;;;;;;;;;;;;11.93;42.38;92409.56;2035299;70;20084;-78
2021/05/02 10:40:05;;;;;;;;;;;;;;;13.78;41.40;92425.41;2035448;70;20052;-79
2021/05/02 10:42:34;;;;;;;;;;;;;;;14.47;39.12;92424.84;2035163;70;20440;-80
2021/05/02 10:45:19;;;;;;;;;;;;;;;13.13;39.01;92433.75;2035537;70;20140;-79
2021/05/02 10:47:45;;;;;;;;;;;;;;;12.86;40.88;92434.59;2035298;70;20080;-78
2021/05/02 10:50:24;;;;;;;;;;;;;;;14.41;39.15;92425.31;2034783;70;20045;-79
2021/05/02 10:53:05;;;;;;;;;;;;;;;13.55;39.92;92429.34;2035289;70;20048;-79
2021/05/02 10:55:49;;;;;;;;;;;;;;;14.24;39.17;92435.22;2035293;70;20079;-77
2021/05/02 10:58:25;;;;;;;;;;;;;;;14.85;39.51;92436.34;2035146;70;20430;-78
2021/05/02 11:01:03;;;;;;;;;;;;;;;14.54;38.07;92437.94;2035250;70;20136;-78
2021/05/02 11:03:35;;;;;;;;;;;;;;;15.31;38.01;92440.31;2035241;70;20048;-78
2021/05/02 11:06:00;;;;;;;;;;;;;;;16.17;37.04;92435.75;2035150;70;20079;-80
2021/05/02 11:08:45;;;;;;;;;;;;;;;16.76;34.62;92437.09;2035215;70;20060;-80
2021/05/02 11:11:45;;;;;;;;;;;;;;;16.37;35.22;92437.88;2037111;70;20065;-78
2021/05/02 11:16:42;;;;;;;;;;;;;;;20.96;30.70;92445.22;2034504;70;20090;-79
2021/05/02 11:19:08;;;;;;;;;;;;;;;21.07;29.65;92446.09;2034446;70;20060;-79
2021/05/02 11:21:46;;;;;;;;;;;;;;;23.78;26.17;92449.69;2034373;70;20044;-79
2021/05/02 11:24:11;;;;;;;;;;;;;;;23.37;26.25;92457.19;2034463;70;20521;-80
2021/05/02 11:32:32;;;;;;;;;;;;;;;25.72;21.78;92453.38;2034394;70;20045;-79
2021/05/02 11:34:58;;;;;;;;;;;;;;;24.63;23.14;92456.69;2034398;70;20052;-79
2021/05/02 11:37:42;;;;;;;;;;;;;;;27.27;22.67;92461.72;2034431;70;20045;-79
2021/05/02 11:40:26;;;;;;;;;;;;;;;19.88;26.93;92451.56;2034503;70;20052;-80
2021/05/02 11:42:59;;;;;;;;;;;;;;;20.76;27.66;92442.72;2034242;70;20255;-80
2021/05/02 11:45:26;;;;;;;;;;;;;;;20.09;28.22;92443.47;2034351;70;20044;-81
2021/05/02 11:47:51;;;;;;;;;;;;;;;18.83;28.09;92450.47;2034498;70;20112;-80
2021/05/02 11:50:18;;;;;;;;;;;;;;;17.80;28.97;92437.56;2035001;70;20546;-80
2021/05/02 11:52:44;;;;;;;;;;;;;;;15.80;32.06;92435.78;2035158;70;20051;-80
2021/05/02 11:55:24;;;;;;;;;;;;;;;16.37;32.03;92441.44;2035168;70;20139;-80
2021/05/02 11:57:50;;;;;;;;;;;;;;;16.48;30.92;92439.66;2035007;70;20441;-78
2021/05/02 12:00:15;;;;;;;;;;;;;;;14.62;32.79;92435.44;2035243;70;20044;-79
2021/05/02 12:02:45;;;;;;;;;;;;;;;14.43;33.57;92445.25;2035059;70;20048;-78
2021/05/02 12:05:10;;;;;;;;;;;;;;;14.50;33.70;92434.91;2035133;70;20159;-78
2021/05/02 12:07:36;;;;;;;;;;;;;;;15.39;33.91;92443.44;2035100;70;20071;-78
2021/05/02 12:10:14;;;;;;;;;;;;;;;13.78;34.65;92436.00;2034571;70;20055;-79
2021/05/02 12:12:39;;;;;;;;;;;;;;;13.58;36.02;92439.38;2035087;70;20080;-77
2021/05/02 12:15:05;;;;;;;;;;;;;;;13.17;35.80;92440.31;2035099;70;20248;-79
2021/05/02 12:17:30;;;;;;;;;;;;;;;13.48;35.51;92445.31;2035288;70;20111;-80
2021/05/02 12:19:56;;;;;;;;;;;;;;;13.19;36.33;92440.44;2035614;70;20049;-79
2021/05/02 12:22:21;;;;;;;;;;;;;;;13.26;36.25;92449.22;2035551;70;20489;-78
2021/05/02 12:24:47;;;;;;;;;;;;;;;13.01;36.47;92442.38;2035577;70;20287;-79
2021/05/02 12:27:14;;;;;;;;;;;;;;;13.00;37.06;92446.56;2035555;70;20512;-78
2021/05/02 12:29:43;;;;;;;;;;;;;;;12.83;36.88;92441.50;2035466;70;20124;-78
2021/05/02 12:32:10;;;;;;;;;;;;;;;12.79;37.34;92444.88;2035544;70;20052;-78
2021/05/02 12:34:55;;;;;;;;;;;;;;;13.14;36.89;92446.50;2035541;70;20489;-78
2021/05/02 12:37:23;;;;;;;;;;;;;;;13.22;36.61;92449.75;2034950;70;20076;-79
2021/05/02 12:39:49;;;;;;;;;;;;;;;13.70;36.69;92454.09;2035643;70;20124;-78
2021/05/02 12:42:15;;;;;;;;;;;;;;;13.20;37.76;92452.47;2035491;70;20508;-78
2021/05/02 12:44:50;;;;;;;;;;;;;;;14.10;36.29;92459.34;2035402;70;20163;-79
2021/05/02 12:47:20;;;;;;;;;;;;;;;13.00;37.51;92457.84;2034980;70;20445;-79
2021/05/02 12:50:04;;;;;;;;;;;;;;;13.08;38.53;92458.25;2035519;70;20483;-77
2021/05/02 12:52:30;;;;;;;;;;;;;;;12.25;38.36;92457.72;2035507;70;20044;-76
2021/05/02 12:54:56;;;;;;;;;;;;;;;12.43;38.66;92450.19;2035757;70;20071;-77
2021/05/02 12:57:25;;;;;;;;;;;;;;;12.79;38.34;92453.34;2035386;70;20493;-77
2021/05/02 12:59:56;;;;;;;;;;;;;;;12.62;38.84;92454.63;2035524;70;20110;-76
2021/05/02 13:02:23;;;;;;;;;;;;;;;12.49;38.25;92458.22;2035472;70;20048;-77
2021/05/02 13:05:02;;;;;;;;;;;;;;;12.90;38.01;92458.09;2035464;70;20120;-77